Time;durP1;ratioP1;P1;durP2;ratioP2;P2;SDS_P1;SDS_P2;PMS_P1;PMS_P2;Temp;Humidity;BMP_temperature;BMP_pressure;BME280_temperature;BME280_humidity;BME280_pressure;Samples;Min_cycle;Max_cycle;Signal;HPM_P1;HPM_P2
2022/12/06 00:01:37;;;;;;;117.35;58.88;;;5.10;78.30;;;;;;4963573;28;114755;-80
2022/12/06 00:04:07;;;;;;;126.72;64.10;;;5.00;78.40;;;;;;4934522;28;114344;-80
2022/12/06 00:06:40;;;;;;;133.43;63.58;;;5.00;78.50;;;;;;4946357;28;114564;-81
2022/12/06 00:09:07;;;;;;;140.93;67.97;;;5.00;78.60;;;;;;4948716;28;115199;-80
2022/12/06 00:11:35;;;;;;;125.90;60.15;;;4.90;78.60;;;;;;4965022;28;114552;-81
2022/12/06 00:14:04;;;;;;;134.40;60.63;;;4.90;78.70;;;;;;4949397;28;114373;-81
2022/12/06 00:16:34;;;;;;;121.05;57.83;;;4.90;78.80;;;;;;4948445;28;114462;-79
2022/12/06 00:19:02;;;;;;;97.55;49.65;;;4.80;78.90;;;;;;4922919;28;118553;-80
2022/12/06 00:21:34;;;;;;;106.57;52.47;;;4.80;78.90;;;;;;4951687;28;114672;-80
2022/12/06 00:24:04;;;;;;;99.18;49.28;;;4.70;79.00;;;;;;4985025;28;114799;-81
2022/12/06 00:26:34;;;;;;;103.65;49.92;;;4.70;79.10;;;;;;4984720;28;115985;-81
2022/12/06 00:29:02;;;;;;;111.57;52.28;;;4.70;79.10;;;;;;4968807;28;115093;-81
2022/12/06 00:31:30;;;;;;;106.45;50.78;;;4.70;79.20;;;;;;4951668;28;115721;-81
2022/12/06 00:33:58;;;;;;;99.53;45.58;;;4.70;79.30;;;;;;4968593;28;114297;-80
2022/12/06 00:36:33;;;;;;;92.78;45.08;;;4.70;79.40;;;;;;4985780;28;114399;-81
2022/12/06 00:39:03;;;;;;;85.47;41.35;;;4.80;79.40;;;;;;4984518;28;115091;-81
2022/12/06 00:41:30;;;;;;;90.07;42.13;;;4.70;79.40;;;;;;4967729;28;114611;-80
2022/12/06 00:43:57;;;;;;;99.38;45.78;;;4.70;79.40;;;;;;4986055;28;114594;-81
2022/12/06 00:46:27;;;;;;;102.90;50.63;;;4.70;79.50;;;;;;4986455;28;114129;-81
2022/12/06 00:48:55;;;;;;;86.45;43.10;;;4.70;79.60;;;;;;4984995;28;116624;-81
2022/12/06 00:51:23;;;;;;;88.35;42.90;;;4.60;79.60;;;;;;4984235;28;116864;-80
2022/12/06 00:53:50;;;;;;;95.97;45.05;;;4.60;79.70;;;;;;4984980;28;114651;-81
2022/12/06 00:56:18;;;;;;;84.88;42.30;;;4.60;79.70;;;;;;4985904;28;114733;-81
2022/12/06 00:58:45;;;;;;;93.35;43.60;;;4.60;79.70;;;;;;4983681;28;115493;-80
2022/12/06 01:01:26;;;;;;;84.32;41.42;;;4.60;79.80;;;;;;4984224;28;114790;-80
2022/12/06 01:03:59;;;;;;;74.50;37.70;;;4.70;79.90;;;;;;4984362;28;114415;-80
2022/12/06 01:06:30;;;;;;;73.95;36.95;;;4.70;79.80;;;;;;4954693;28;117380;-81
2022/12/06 01:09:00;;;;;;;66.15;34.03;;;4.70;79.80;;;;;;4947456;28;115091;-80
2022/12/06 01:11:28;;;;;;;78.43;37.22;;;4.70;79.70;;;;;;4964868;28;115113;-81
2022/12/06 01:13:55;;;;;;;66.97;33.33;;;4.70;79.80;;;;;;4965716;28;119576;-80
2022/12/06 01:16:25;;;;;;;62.67;32.10;;;4.70;79.70;;;;;;4965639;28;114546;-81
2022/12/06 01:18:55;;;;;;;63.60;33.00;;;4.70;79.80;;;;;;4964800;28;115219;-81
2022/12/06 01:21:22;;;;;;;63.55;34.55;;;4.70;79.80;;;;;;4963507;28;114768;-79
2022/12/06 01:23:50;;;;;;;62.83;33.50;;;4.70;79.80;;;;;;4964201;28;114283;-80
2022/12/06 01:26:29;;;;;;;67.70;34.58;;;4.70;79.90;;;;;;4947927;28;114596;-81
2022/12/06 01:29:00;;;;;;;71.00;35.95;;;4.70;79.90;;;;;;4947788;28;115204;-81
2022/12/06 01:31:27;;;;;;;71.00;35.85;;;4.70;79.90;;;;;;4963444;28;115784;-81
2022/12/06 01:34:03;;;;;;;71.55;37.38;;;4.70;80.00;;;;;;4963841;28;114590;-81
2022/12/06 01:36:31;;;;;;;59.10;33.20;;;4.70;80.00;;;;;;4959865;28;114321;-80
2022/12/06 01:38:59;;;;;;;63.45;32.58;;;4.70;80.00;;;;;;4963173;28;115180;-81
2022/12/06 01:41:27;;;;;;;60.90;35.40;;;4.70;79.90;;;;;;4947298;28;114774;-79
2022/12/06 01:43:55;;;;;;;65.63;33.95;;;4.70;79.90;;;;;;4965211;28;114332;-80
2022/12/06 01:46:41;;;;;;;65.25;35.42;;;4.70;79.90;;;;;;4964292;28;114422;-78
2022/12/06 01:49:11;;;;;;;66.40;34.53;;;4.70;79.90;;;;;;4946635;28;115095;-79
2022/12/06 01:51:50;;;;;;;70.68;38.97;;;4.70;79.90;;;;;;4971450;28;115280;-79
2022/12/06 01:54:18;;;;;;;61.47;33.67;;;4.70;80.00;;;;;;4967481;28;114344;-79
2022/12/06 01:56:45;;;;;;;67.45;37.13;;;4.70;79.90;;;;;;4952372;28;115483;-79
2022/12/06 01:59:13;;;;;;;75.03;37.50;;;4.70;79.90;;;;;;4946471;28;115021;-79
2022/12/06 02:01:40;;;;;;;66.25;35.95;;;4.70;79.90;;;;;;4947008;28;115034;-81
2022/12/06 02:04:07;;;;;;;78.40;43.30;;;4.70;79.90;;;;;;4963409;28;114683;-80
2022/12/06 02:06:35;;;;;;;75.97;41.03;;;4.70;79.90;;;;;;4945575;28;114846;-79
2022/12/06 02:09:04;;;;;;;77.53;40.03;;;4.70;79.90;;;;;;4946264;28;115149;-80
2022/12/06 02:11:31;;;;;;;82.18;41.80;;;4.60;79.90;;;;;;4962773;28;114707;-80
2022/12/06 02:14:03;;;;;;;89.40;45.15;;;4.60;80.00;;;;;;4965655;28;118753;-79
2022/12/06 02:17:01;;;;;;;81.07;41.50;;;4.50;80.10;;;;;;4944040;28;114522;-80
2022/12/06 02:19:57;;;;;;;78.30;41.58;;;4.50;80.20;;;;;;4963395;28;115072;-80
2022/12/06 02:23:10;;;;;;;88.65;45.15;;;4.50;80.40;;;;;;4962832;28;114651;-79
2022/12/06 02:25:52;;;;;;;85.03;43.63;;;4.40;80.40;;;;;;4962903;28;114449;-79
2022/12/06 02:29:05;;;;;;;82.97;42.05;;;4.30;80.60;;;;;;4955184;28;114299;-79
2022/12/06 02:31:49;;;;;;;87.97;44.40;;;4.30;80.70;;;;;;4964223;28;115110;-79
2022/12/06 02:34:39;;;;;;;88.40;44.60;;;4.30;80.80;;;;;;4944027;28;114822;-79
2022/12/06 02:37:33;;;;;;;85.00;44.15;;;4.30;80.90;;;;;;4979093;28;118378;-78
2022/12/06 02:40:15;;;;;;;90.03;46.92;;;4.30;80.90;;;;;;4967901;28;114227;-79
2022/12/06 02:42:58;;;;;;;85.00;46.22;;;4.30;80.90;;;;;;4982431;28;115229;-80
2022/12/06 02:45:29;;;;;;;90.47;48.00;;;4.40;80.80;;;;;;4955489;28;114761;-80
2022/12/06 02:47:58;;;;;;;95.07;50.47;;;4.40;80.70;;;;;;4962374;28;114410;-79
2022/12/06 02:50:31;;;;;;;85.25;45.30;;;4.40;80.80;;;;;;4950987;28;114413;-80
2022/12/06 02:53:02;;;;;;;83.40;45.63;;;4.40;80.80;;;;;;4946526;28;115265;-79
2022/12/06 02:55:29;;;;;;;88.50;47.67;;;4.40;80.80;;;;;;4949017;28;114640;-79
2022/12/06 02:57:56;;;;;;;85.13;46.40;;;4.50;80.80;;;;;;4968876;28;116480;-80
2022/12/06 03:00:28;;;;;;;85.35;47.05;;;4.60;80.80;;;;;;4949310;28;114573;-79
2022/12/06 03:03:38;;;;;;;88.20;47.40;;;4.70;80.70;;;;;;4965826;28;115290;-81
2022/12/06 03:06:48;;;;;;;95.25;48.60;;;4.80;80.50;;;;;;4936073;28;114781;-80
2022/12/06 03:09:40;;;;;;;73.57;42.10;;;4.80;80.40;;;;;;4967071;28;114595;-80
2022/12/06 03:12:29;;;;;;;75.53;41.00;;;4.90;80.10;;;;;;4967975;28;114418;-80
2022/12/06 03:15:09;;;;;;;79.53;43.60;;;4.90;80.10;;;;;;4965452;28;115533;-80
2022/12/06 03:17:47;;;;;;;88.90;45.70;;;4.90;80.20;;;;;;4986422;28;114602;-80
2022/12/06 03:20:41;;;;;;;99.97;49.10;;;4.90;80.20;;;;;;4969271;28;115571;-81
2022/12/06 03:23:19;;;;;;;94.57;46.80;;;4.90;80.20;;;;;;4955246;28;114301;-80
2022/12/06 03:25:46;;;;;;;86.47;43.80;;;5.00;80.20;;;;;;4968861;28;115059;-79
2022/12/06 03:28:14;;;;;;;96.05;50.13;;;5.00;80.10;;;;;;4968637;28;115027;-79
2022/12/06 03:30:44;;;;;;;98.30;51.47;;;4.90;80.00;;;;;;4969873;28;114589;-80
2022/12/06 03:33:12;;;;;;;96.03;49.88;;;5.00;80.00;;;;;;4969934;28;114233;-79
2022/12/06 03:35:39;;;;;;;105.07;51.78;;;5.10;79.90;;;;;;4968517;28;116210;-80
2022/12/06 03:38:10;;;;;;;101.55;51.33;;;5.00;79.80;;;;;;4969038;28;114708;-79
2022/12/06 03:40:38;;;;;;;94.78;49.67;;;5.00;79.70;;;;;;4953391;28;114461;-80
2022/12/06 03:43:06;;;;;;;94.55;50.95;;;5.00;79.80;;;;;;4969639;28;114545;-81
2022/12/06 03:45:42;;;;;;;97.50;50.78;;;5.10;79.70;;;;;;4968388;28;114985;-79
2022/12/06 03:48:13;;;;;;;92.82;49.05;;;5.00;79.70;;;;;;4985022;28;114766;-80
2022/12/06 03:50:55;;;;;;;96.53;51.25;;;4.90;79.70;;;;;;4986187;28;114273;-79
2022/12/06 03:53:24;;;;;;;89.47;47.33;;;4.90;79.70;;;;;;4969872;28;114640;-79
2022/12/06 03:55:52;;;;;;;95.57;51.75;;;4.90;79.80;;;;;;4973562;28;115161;-79
2022/12/06 03:58:19;;;;;;;87.32;51.10;;;4.90;79.70;;;;;;4964726;28;116382;-79
2022/12/06 04:00:46;;;;;;;97.35;51.72;;;4.90;79.60;;;;;;4964828;28;114629;-80
2022/12/06 04:03:13;;;;;;;120.20;60.30;;;5.00;79.60;;;;;;4967097;28;114302;-79
2022/12/06 04:05:40;;;;;;;120.53;60.72;;;4.90;79.60;;;;;;4964719;28;114736;-79
2022/12/06 04:08:08;;;;;;;120.20;60.03;;;4.90;79.60;;;;;;4965595;28;114569;-79
2022/12/06 04:10:35;;;;;;;132.38;67.93;;;5.00;79.50;;;;;;4965674;28;114755;-79
2022/12/06 04:13:11;;;;;;;122.50;60.10;;;5.00;79.50;;;;;;4962822;28;114536;-80
2022/12/06 04:15:45;;;;;;;117.82;61.42;;;5.00;79.50;;;;;;4970414;28;115462;-80
2022/12/06 04:18:13;;;;;;;122.28;62.13;;;5.00;79.50;;;;;;4955803;28;114726;-80
2022/12/06 04:23:35;;;;;;;113.75;59.60;;;5.00;79.30;;;;;;4986641;28;114365;-79
2022/12/06 04:26:03;;;;;;;114.82;59.83;;;5.00;79.40;;;;;;4983827;28;115093;-78
2022/12/06 04:39:37;;;;;;;95.38;51.53;;;5.00;79.20;;;;;;4984976;28;114753;-81
2022/12/06 04:44:50;;;;;;;107.03;57.17;;;5.00;79.20;;;;;;4977782;28;114376;-81
2022/12/06 04:47:17;;;;;;;92.50;54.70;;;5.00;79.20;;;;;;4985169;28;115088;-81
2022/12/06 04:49:45;;;;;;;123.32;62.13;;;5.00;79.20;;;;;;4985306;28;117193;-80
2022/12/06 04:52:12;;;;;;;114.28;61.30;;;5.00;79.20;;;;;;4985934;28;114477;-80
2022/12/06 04:54:39;;;;;;;119.72;62.97;;;5.00;79.20;;;;;;4986359;28;114400;-81
2022/12/06 04:57:09;;;;;;;125.35;65.28;;;5.00;79.10;;;;;;4983881;28;114733;-80
2022/12/06 04:59:38;;;;;;;105.43;57.03;;;5.00;79.00;;;;;;4985011;28;114556;-80
2022/12/06 05:02:06;;;;;;;102.82;56.45;;;5.00;79.00;;;;;;4952033;28;114317;-80
2022/12/06 05:04:33;;;;;;;109.60;57.90;;;5.00;79.00;;;;;;4943494;28;114578;-81
2022/12/06 05:07:01;;;;;;;111.05;56.38;;;5.10;79.10;;;;;;4947944;28;115239;-81
2022/12/06 05:09:28;;;;;;;109.07;57.80;;;5.00;78.90;;;;;;4963665;28;114913;-80
2022/12/06 05:11:55;;;;;;;97.03;53.42;;;5.00;78.80;;;;;;4948484;28;114377;-80
2022/12/06 05:14:22;;;;;;;107.28;56.53;;;5.00;79.00;;;;;;4966056;28;114425;-80
2022/12/06 05:16:49;;;;;;;109.25;58.75;;;5.00;79.00;;;;;;4965128;28;115970;-79
2022/12/06 05:19:17;;;;;;;100.72;59.30;;;5.00;79.00;;;;;;4965532;28;115714;-80
2022/12/06 05:21:44;;;;;;;96.63;54.33;;;5.00;78.90;;;;;;4965391;28;114509;-79
2022/12/06 05:24:11;;;;;;;103.78;59.50;;;4.90;78.90;;;;;;4984598;28;114307;-79
2022/12/06 05:26:38;;;;;;;97.97;55.08;;;4.90;79.20;;;;;;4982348;28;115140;-80
2022/12/06 05:29:05;;;;;;;94.30;51.97;;;4.90;79.20;;;;;;4984628;28;115784;-80
2022/12/06 05:31:32;;;;;;;101.70;58.10;;;4.90;79.10;;;;;;4985818;28;114434;-80
2022/12/06 05:34:00;;;;;;;101.68;58.10;;;5.00;79.20;;;;;;4984151;28;114246;-81
2022/12/06 05:36:27;;;;;;;101.07;58.35;;;5.00;79.00;;;;;;4983185;28;115150;-81
2022/12/06 05:38:55;;;;;;;114.68;64.80;;;5.00;79.00;;;;;;4971441;28;114740;-80
2022/12/06 05:41:22;;;;;;;119.50;65.82;;;5.00;79.10;;;;;;4984048;28;114756;-80
2022/12/06 05:43:49;;;;;;;111.72;63.85;;;5.10;79.10;;;;;;4985367;28;114379;-78
2022/12/06 05:46:16;;;;;;;110.45;59.20;;;5.10;79.10;;;;;;4984243;28;114992;-79
2022/12/06 05:48:44;;;;;;;118.13;62.47;;;5.10;79.00;;;;;;4984207;28;114668;-78
2022/12/06 05:51:11;;;;;;;107.63;59.60;;;5.10;78.90;;;;;;4983525;28;114444;-81
2022/12/06 05:53:39;;;;;;;120.03;64.25;;;5.10;78.90;;;;;;4984642;28;114308;-78
2022/12/06 05:56:09;;;;;;;108.68;60.08;;;5.00;78.80;;;;;;4983101;28;115163;-79
2022/12/06 05:58:36;;;;;;;118.00;64.78;;;5.00;78.90;;;;;;4982993;28;114696;-79
2022/12/06 06:01:07;;;;;;;122.75;64.63;;;5.10;78.90;;;;;;4984425;28;119477;-79
2022/12/06 06:03:34;;;;;;;139.00;71.43;;;5.00;79.00;;;;;;4966878;28;114506;-80
2022/12/06 06:06:02;;;;;;;117.63;60.70;;;5.00;78.70;;;;;;4983520;28;115795;-80
2022/12/06 06:08:29;;;;;;;161.98;83.00;;;4.90;78.70;;;;;;4971502;28;114558;-79
2022/12/06 06:10:56;;;;;;;99.28;57.60;;;4.90;78.90;;;;;;4966737;28;114460;-79
2022/12/06 06:13:24;;;;;;;115.75;63.42;;;4.80;78.80;;;;;;4966828;28;114352;-80
2022/12/06 06:15:51;;;;;;;94.22;54.75;;;4.80;78.90;;;;;;4972412;28;116100;-79
2022/12/06 06:18:18;;;;;;;93.32;55.17;;;4.70;78.90;;;;;;4965243;28;116979;-80
2022/12/06 06:20:55;;;;;;;101.32;58.88;;;4.70;79.00;;;;;;4965341;28;114389;-79
2022/12/06 06:23:23;;;;;;;112.47;62.13;;;4.70;79.10;;;;;;4974307;28;114473;-81
2022/12/06 06:25:51;;;;;;;112.75;62.65;;;4.70;79.10;;;;;;4985458;28;115204;-80
2022/12/06 06:28:19;;;;;;;104.75;58.25;;;4.70;79.20;;;;;;4953048;28;116188;-80
2022/12/06 06:30:46;;;;;;;100.30;57.58;;;4.60;79.20;;;;;;4986528;28;114421;-79
2022/12/06 06:33:14;;;;;;;119.57;64.35;;;4.60;79.30;;;;;;4970709;28;114306;-79
2022/12/06 06:35:41;;;;;;;106.85;60.03;;;4.60;79.30;;;;;;4969264;28;115065;-81
2022/12/06 06:38:09;;;;;;;111.45;61.10;;;4.60;79.50;;;;;;4986758;28;114612;-79
2022/12/06 06:40:36;;;;;;;103.20;59.70;;;4.60;79.50;;;;;;4987688;28;114499;-80
2022/12/06 06:43:22;;;;;;;103.30;56.45;;;4.70;79.40;;;;;;4969830;28;114368;-79
2022/12/06 06:45:58;;;;;;;97.28;57.30;;;4.70;79.20;;;;;;4949027;28;115463;-79
2022/12/06 06:48:27;;;;;;;97.82;55.92;;;4.70;79.20;;;;;;4966122;28;115207;-79
2022/12/06 06:50:54;;;;;;;99.88;55.88;;;4.70;79.10;;;;;;4950394;28;114616;-80
2022/12/06 06:53:26;;;;;;;99.47;58.20;;;4.60;79.40;;;;;;4967024;28;115894;-80
2022/12/06 06:55:54;;;;;;;102.82;58.03;;;4.60;79.50;;;;;;4966932;28;115343;-80
2022/12/06 06:58:21;;;;;;;95.25;55.70;;;4.70;79.40;;;;;;4969375;28;115532;-81
2022/12/06 07:00:53;;;;;;;107.25;56.83;;;4.70;79.40;;;;;;4966636;28;115850;-80
2022/12/06 07:03:22;;;;;;;92.35;53.05;;;4.70;79.30;;;;;;4965951;28;114325;-80
2022/12/06 07:06:16;;;;;;;93.45;53.10;;;4.80;79.10;;;;;;4964969;28;115552;-80
2022/12/06 07:08:43;;;;;;;110.13;58.43;;;4.80;79.20;;;;;;4947957;28;115858;-80
2022/12/06 07:11:11;;;;;;;99.10;55.13;;;4.80;79.10;;;;;;4965974;28;114933;-80
2022/12/06 07:13:39;;;;;;;98.05;52.08;;;4.80;78.90;;;;;;4966487;28;114344;-80
2022/12/06 07:16:12;;;;;;;102.00;53.83;;;4.90;79.00;;;;;;4965406;28;115237;-81
2022/12/06 07:18:46;;;;;;;116.45;62.42;;;4.90;79.10;;;;;;4948047;28;115191;-81
2022/12/06 07:21:24;;;;;;;116.97;61.17;;;4.90;79.10;;;;;;4965699;28;114484;-80
2022/12/06 07:23:53;;;;;;;126.80;66.25;;;5.00;79.30;;;;;;4949753;28;114586;-81
2022/12/06 07:26:22;;;;;;;118.57;59.17;;;4.90;79.20;;;;;;4963202;28;115102;-80
2022/12/06 07:28:50;;;;;;;120.20;63.08;;;5.00;79.20;;;;;;4964079;28;114753;-82
2022/12/06 07:31:23;;;;;;;112.88;59.67;;;5.00;79.20;;;;;;4964388;28;114587;-81
2022/12/06 07:33:54;;;;;;;118.68;61.97;;;5.00;79.20;;;;;;4965336;28;114386;-80
2022/12/06 07:36:22;;;;;;;84.70;48.17;;;5.00;79.20;;;;;;4964879;28;116153;-80
2022/12/06 07:38:51;;;;;;;85.30;47.38;;;5.00;78.90;;;;;;4947197;28;114825;-81
2022/12/06 07:47:00;;;;;;;76.88;43.22;;;5.10;79.10;;;;;;4966038;28;115166;-80
2022/12/06 07:49:28;;;;;;;75.40;43.50;;;5.00;79.10;;;;;;4966327;28;115957;-81
2022/12/06 07:51:55;;;;;;;72.97;41.53;;;5.10;79.00;;;;;;4965246;28;114406;-81
2022/12/06 07:54:22;;;;;;;64.15;37.10;;;5.10;79.00;;;;;;4933460;28;114506;-81
2022/12/06 07:56:50;;;;;;;64.47;37.40;;;5.10;78.80;;;;;;4964371;28;115074;-81
2022/12/06 07:59:18;;;;;;;54.53;31.35;;;5.10;78.80;;;;;;4948752;28;115173;-80
2022/12/06 08:01:45;;;;;;;54.30;30.40;;;5.10;78.60;;;;;;4965005;28;114537;-81
2022/12/06 08:04:13;;;;;;;51.88;31.23;;;5.10;78.70;;;;;;4968358;28;114365;-81
2022/12/06 08:06:40;;;;;;;47.28;29.17;;;5.10;78.70;;;;;;4984699;28;115144;-77
2022/12/06 08:09:08;;;;;;;48.75;28.17;;;5.10;78.70;;;;;;4985345;28;114633;-78
2022/12/06 08:11:35;;;;;;;46.22;25.30;;;5.10;78.60;;;;;;4986127;28;114654;-79
2022/12/06 08:14:03;;;;;;;44.55;25.08;;;5.10;78.60;;;;;;4984897;28;114797;-79
2022/12/06 08:16:31;;;;;;;41.05;25.80;;;5.10;78.50;;;;;;4967152;28;115194;-79
2022/12/06 08:19:01;;;;;;;46.97;26.25;;;5.10;78.40;;;;;;4984802;28;114849;-79
2022/12/06 08:22:32;;;;;;;33.75;20.77;;;5.20;78.30;;;;;;4973446;28;114861;-79
2022/12/06 08:25:00;;;;;;;31.27;18.75;;;5.10;78.30;;;;;;4985076;28;114443;-78
2022/12/06 08:27:27;;;;;;;28.70;17.35;;;5.10;78.30;;;;;;4986569;28;115166;-78
2022/12/06 08:29:54;;;;;;;29.00;17.17;;;5.10;78.30;;;;;;4984731;28;114738;-78
2022/12/06 08:32:21;;;;;;;26.63;15.40;;;5.10;78.20;;;;;;4985314;28;114560;-79
2022/12/06 08:34:48;;;;;;;25.50;15.68;;;5.10;78.20;;;;;;4985636;28;114359;-79
2022/12/06 08:37:15;;;;;;;22.85;14.38;;;5.10;78.20;;;;;;4984436;28;115646;-78
2022/12/06 08:39:43;;;;;;;23.95;14.98;;;5.00;78.30;;;;;;4983838;28;114750;-78
2022/12/06 08:42:10;;;;;;;24.80;14.77;;;5.00;78.10;;;;;;4975242;28;117122;-78
2022/12/06 08:44:37;;;;;;;24.08;14.05;;;5.10;78.00;;;;;;4965295;28;115098;-79
2022/12/06 08:47:04;;;;;;;22.10;14.70;;;5.00;78.10;;;;;;4930374;28;115525;-79
2022/12/06 08:49:35;;;;;;;21.52;15.02;;;5.00;78.10;;;;;;4945719;28;114793;-79
2022/12/06 08:52:02;;;;;;;19.35;13.32;;;5.00;78.00;;;;;;4964562;28;114563;-78
2022/12/06 08:54:29;;;;;;;17.27;11.88;;;5.10;78.00;;;;;;4965529;28;114303;-79
2022/12/06 08:56:57;;;;;;;20.55;13.93;;;5.00;77.90;;;;;;4963486;28;115050;-79
2022/12/06 08:59:24;;;;;;;20.92;13.65;;;5.10;77.90;;;;;;4963299;28;114738;-80
2022/12/06 09:01:51;;;;;;;19.92;13.80;;;5.00;77.90;;;;;;4963079;28;114417;-80
2022/12/06 09:04:19;;;;;;;16.38;11.35;;;5.00;77.90;;;;;;4965538;28;114382;-80
2022/12/06 09:06:46;;;;;;;16.15;10.57;;;5.00;77.80;;;;;;4964956;28;114997;-80
2022/12/06 09:09:15;;;;;;;13.88;8.45;;;5.00;77.80;;;;;;4963484;28;114774;-79
2022/12/06 09:11:42;;;;;;;12.18;7.72;;;5.00;77.80;;;;;;4947914;28;114640;-78
2022/12/06 09:14:13;;;;;;;11.75;8.77;;;5.00;77.60;;;;;;4964506;28;114543;-79
2022/12/06 09:16:50;;;;;;;9.30;6.55;;;4.90;77.50;;;;;;4948557;28;115092;-78
2022/12/06 09:19:17;;;;;;;10.25;6.65;;;4.90;77.60;;;;;;4963333;28;114894;-79
2022/12/06 09:21:45;;;;;;;7.88;5.63;;;4.90;77.40;;;;;;4964991;28;114643;-79
2022/12/06 09:24:14;;;;;;;11.35;5.75;;;4.90;77.20;;;;;;4977830;28;114403;-80
2022/12/06 09:26:41;;;;;;;8.00;5.38;;;4.90;77.10;;;;;;4962185;28;114950;-79
2022/12/06 09:29:09;;;;;;;5.95;4.13;;;4.90;77.00;;;;;;4964652;28;114636;-79
2022/12/06 09:31:39;;;;;;;6.28;4.25;;;4.90;76.90;;;;;;4964204;28;115463;-79
2022/12/06 09:34:07;;;;;;;7.28;4.80;;;4.90;76.90;;;;;;4965344;28;114599;-78
2022/12/06 09:36:47;;;;;;;6.53;4.35;;;4.90;76.70;;;;;;4945729;28;116196;-80
2022/12/06 09:39:43;;;;;;;5.85;4.20;;;4.90;76.70;;;;;;4963128;28;114618;-80
2022/12/06 09:42:35;;;;;;;5.05;3.60;;;4.80;76.70;;;;;;4962593;28;114863;-80
2022/12/06 09:45:20;;;;;;;6.00;3.70;;;4.80;76.60;;;;;;4963370;28;115596;-81
2022/12/06 09:48:53;;;;;;;8.80;5.50;;;4.80;76.70;;;;;;4962836;28;115164;-79
2022/12/06 09:52:01;;;;;;;7.13;4.45;;;4.80;76.50;;;;;;4955617;28;114671;-80
2022/12/06 09:54:49;;;;;;;6.28;4.35;;;4.70;76.60;;;;;;4963587;28;114611;-80
2022/12/06 09:57:26;;;;;;;;;;;4.60;76.90;;;;;;4962966;28;114466;-80
2022/12/06 10:00:14;;;;;;;6.70;4.38;;;4.60;76.80;;;;;;4975070;28;115039;-80
2022/12/06 10:03:07;;;;;;;6.93;4.68;;;4.60;76.50;;;;;;4963614;28;114592;-80
2022/12/06 10:06:02;;;;;;;8.43;5.05;;;4.50;76.50;;;;;;4963248;28;114308;-80
2022/12/06 10:08:53;;;;;;;7.80;5.35;;;4.40;76.30;;;;;;4963608;28;114775;-80
2022/12/06 10:11:52;;;;;;;9.63;6.35;;;4.40;76.50;;;;;;4963389;28;115069;-80
2022/12/06 10:15:06;;;;;;;9.35;5.95;;;4.40;76.30;;;;;;5001132;28;115846;-80
2022/12/06 10:17:48;;;;;;;10.35;6.88;;;4.40;76.20;;;;;;4983451;28;116433;-80
2022/12/06 10:20:50;;;;;;;8.27;5.90;;;4.30;76.30;;;;;;4967351;28;114767;-80
2022/12/06 10:23:20;;;;;;;10.05;7.30;;;4.30;76.40;;;;;;4962551;28;114984;-80
2022/12/06 10:26:18;;;;;;;9.07;6.18;;;4.30;76.40;;;;;;4963750;28;114725;-80
2022/12/06 10:29:06;;;;;;;12.20;7.68;;;4.30;76.40;;;;;;4950497;28;114481;-80
2022/12/06 10:31:59;;;;;;;14.27;9.05;;;4.30;76.40;;;;;;4969250;28;114563;-80
2022/12/06 10:34:56;;;;;;;13.15;7.65;;;4.30;76.40;;;;;;4963954;28;115327;-80
2022/12/06 10:37:48;;;;;;;16.08;10.02;;;4.30;76.30;;;;;;4964312;28;114692;-80
2022/12/06 10:40:33;;;;;;;13.17;8.40;;;4.40;76.40;;;;;;4964030;28;115673;-79
2022/12/06 10:43:33;;;;;;;13.00;8.25;;;4.30;76.30;;;;;;4948072;28;115442;-79
2022/12/06 10:49:40;;;;;;;12.45;8.60;;;4.40;76.10;;;;;;4962290;28;114570;-80
2022/12/06 10:52:33;;;;;;;12.68;9.02;;;4.40;76.10;;;;;;4963742;28;114499;-80
2022/12/06 10:55:01;;;;;;;11.80;7.70;;;4.40;75.90;;;;;;4968411;28;115406;-80
2022/12/06 10:57:42;;;;;;;12.30;8.10;;;4.40;76.00;;;;;;4963951;28;115102;-80
2022/12/06 11:00:14;;;;;;;12.25;8.50;;;4.50;76.00;;;;;;4958309;28;116250;-80
2022/12/06 11:03:02;;;;;;;11.18;7.70;;;4.50;75.80;;;;;;4948935;28;114551;-80
2022/12/06 11:05:47;;;;;;;10.45;7.57;;;4.50;75.80;;;;;;4962954;28;114571;-80
2022/12/06 11:08:21;;;;;;;9.55;6.53;;;4.60;75.80;;;;;;4944117;28;115097;-80
2022/12/06 11:10:48;;;;;;;12.60;8.48;;;4.60;75.40;;;;;;4966100;28;116082;-80
2022/12/06 11:13:25;;;;;;;9.75;6.50;;;4.60;75.40;;;;;;4934502;28;114737;-80
2022/12/06 11:16:09;;;;;;;10.13;6.97;;;4.60;75.30;;;;;;4948098;28;114523;-80
2022/12/06 11:18:37;;;;;;;;;;;4.60;75.20;;;;;;4966016;28;115040;-80
2022/12/06 11:21:14;;;;;;;7.47;4.95;;;4.60;75.50;;;;;;4970859;28;114880;-80
2022/12/06 11:24:18;;;;;;;6.78;5.15;;;4.60;75.30;;;;;;4966975;28;114641;-80
2022/12/06 11:27:10;;;;;;;6.38;4.65;;;4.60;74.90;;;;;;4934149;28;116948;-79
2022/12/06 11:29:37;;;;;;;6.97;5.28;;;4.60;74.80;;;;;;4933310;28;115338;-80
2022/12/06 11:32:07;;;;;;;7.72;5.22;;;4.60;74.70;;;;;;4967001;28;114623;-81
2022/12/06 11:34:42;;;;;;;8.45;4.80;;;4.70;74.50;;;;;;4967713;28;114781;-81
2022/12/06 11:37:20;;;;;;;8.23;5.60;;;4.70;74.40;;;;;;4966777;28;118049;-80
2022/12/06 11:39:49;;;;;;;9.65;6.88;;;4.70;74.40;;;;;;4968441;28;115232;-80
2022/12/06 11:42:22;;;;;;;11.35;7.30;;;4.70;74.40;;;;;;4966793;28;115121;-80
2022/12/06 11:44:56;;;;;;;9.38;6.20;;;4.70;74.20;;;;;;4965997;28;114705;-80
2022/12/06 11:47:24;;;;;;;8.65;5.78;;;4.80;74.10;;;;;;4950469;28;114733;-81
2022/12/06 11:49:53;;;;;;;7.38;5.65;;;4.80;74.00;;;;;;4966277;28;115054;-79
2022/12/06 11:52:42;;;;;;;8.02;5.75;;;4.80;74.10;;;;;;4959964;28;115329;-79
2022/12/06 11:55:14;;;;;;;11.02;7.55;;;4.80;73.80;;;;;;4952966;28;114536;-79
2022/12/06 11:57:55;;;;;;;9.68;6.35;;;4.70;74.00;;;;;;4967099;28;114830;-79
2022/12/06 12:00:23;;;;;;;7.80;5.82;;;4.80;73.70;;;;;;4935841;28;115246;-79
2022/12/06 12:02:53;;;;;;;9.15;6.40;;;4.80;73.80;;;;;;4978237;28;114777;-79
2022/12/06 12:05:35;;;;;;;7.32;5.22;;;4.80;73.50;;;;;;4953264;28;114462;-79
2022/12/06 12:08:15;;;;;;;7.55;4.70;;;4.80;73.30;;;;;;4950039;28;114916;-79
2022/12/06 12:10:57;;;;;;;8.15;5.85;;;4.70;73.40;;;;;;4950708;28;115076;-78
2022/12/06 12:13:42;;;;;;;6.65;5.05;;;4.70;73.30;;;;;;4952060;28;115024;-79
2022/12/06 12:16:32;;;;;;;9.02;6.38;;;4.70;73.50;;;;;;4947687;28;114506;-79
2022/12/06 12:19:03;;;;;;;8.30;5.47;;;4.80;73.30;;;;;;4968305;28;114501;-79
2022/12/06 12:21:40;;;;;;;9.20;6.28;;;4.70;73.50;;;;;;4964228;28;116354;-79
2022/12/06 12:24:44;;;;;;;8.55;6.63;;;4.70;73.30;;;;;;4964254;28;114743;-81
2022/12/06 12:27:49;;;;;;;7.80;5.55;;;4.70;73.20;;;;;;4966590;28;114518;-78
2022/12/06 12:30:16;;;;;;;;;;;4.70;73.20;;;;;;4974311;28;114374;-78
2022/12/06 12:32:43;;;;;;;6.72;4.68;;;4.60;73.60;;;;;;4965805;28;115228;-81
2022/12/06 12:35:24;;;;;;;6.40;4.88;;;4.60;73.40;;;;;;4965782;28;114369;-80
2022/12/06 12:38:09;;;;;;;6.05;4.35;;;4.70;73.20;;;;;;4956719;28;114416;-79
2022/12/06 12:40:45;;;;;;;7.75;5.20;;;4.60;73.20;;;;;;4965036;28;114408;-79
2022/12/06 12:43:12;;;;;;;6.53;4.75;;;4.60;73.00;;;;;;4963883;28;115529;-79
2022/12/06 12:46:01;;;;;;;6.40;5.18;;;4.60;73.00;;;;;;4965421;28;114561;-79
2022/12/06 12:48:29;;;;;;;9.55;6.93;;;4.60;73.00;;;;;;4950113;28;114493;-79
2022/12/06 12:50:59;;;;;;;10.60;6.45;;;4.50;73.00;;;;;;4982682;28;115112;-78
2022/12/06 12:53:39;;;;;;;7.78;5.40;;;4.50;73.00;;;;;;4978401;28;115618;-80
2022/12/06 12:56:12;;;;;;;7.65;6.07;;;4.50;73.10;;;;;;4975080;28;115985;-80
2022/12/06 12:58:42;;;;;;;8.13;5.57;;;4.40;73.20;;;;;;4966735;28;114617;-80
2022/12/06 13:01:42;;;;;;;8.98;6.13;;;4.40;73.30;;;;;;4963452;28;114602;-80
2022/12/06 13:04:14;;;;;;;7.95;6.20;;;4.40;73.20;;;;;;4947886;28;115647;-80
2022/12/06 13:06:58;;;;;;;10.15;6.55;;;4.30;73.40;;;;;;4946687;28;115965;-79
2022/12/06 13:09:45;;;;;;;8.32;5.95;;;4.30;73.40;;;;;;4945520;28;114438;-80
2022/12/06 13:12:39;;;;;;;10.35;6.60;;;4.40;73.40;;;;;;4964664;28;114498;-79
2022/12/06 13:15:36;;;;;;;9.37;6.33;;;4.30;73.40;;;;;;4959240;28;115769;-79
2022/12/06 13:18:17;;;;;;;11.13;7.70;;;4.40;73.40;;;;;;4962499;28;114772;-80
2022/12/06 13:20:44;;;;;;;9.20;6.80;;;4.40;73.50;;;;;;4948000;28;114481;-80
2022/12/06 13:23:26;;;;;;;10.23;6.00;;;4.30;73.30;;;;;;4965489;28;114433;-80
2022/12/06 13:26:26;;;;;;;8.55;6.63;;;4.40;73.40;;;;;;4989944;28;115121;-80
2022/12/06 13:29:00;;;;;;;10.35;7.60;;;4.40;73.30;;;;;;4977991;28;115253;-80
2022/12/06 13:31:32;;;;;;;11.27;7.45;;;4.30;73.40;;;;;;4986881;28;114798;-79
2022/12/06 13:34:03;;;;;;;8.60;6.95;;;4.40;73.40;;;;;;4946442;28;114588;-80